KDCA/DCA METAR and TAF weather

Enter ICAO airport designator
Station Type Date Time Source
KDCA METAR 2020/10/22 02:52 UTC NOAA

KDCA 220252Z 21004KT 10SM CLR 19/18 A3023 RMK AO2 SLP237 T01940183 53004


Station Type Date Time Source
KDCA Decoded METAR 2020/10/22 02:52 UTC NOAA

WASHINGTON NATIONAL AIRPORT , VA, United States (KDCA) 38-51N 077-02W 18M
Oct 21, 2020 - 10:52 PM EDT / 2020.10.22 0252 UTC
Wind: from the SSW (210 degrees) at 5 MPH (4 KT):0
Visibility: 10 mile(s):0
Sky conditions: clear
Temperature: 66.9 F (19.4 C)
Dew Point: 64.9 F (18.3 C)
Relative Humidity: 93%
Pressure (altimeter): 30.23 in. Hg (1023 hPa)
Pressure tendency: 0.01 inches (0.4 hPa) higher than three hours ago
ob: KDCA 220252Z 21004KT 10SM CLR 19/18 A3023 RMK AO2 SLP237 T01940183 53004
cycle: 3

Station Type Date Time Source
KDCA TAF 2020/10/22 03:58 UTC NOAA

TAF
AMD KDCA 220255Z 2203/2306 17004KT P6SM FEW030
FM220500 VRB03KT 3SM BR SCT250
FM220900 00000KT 1/2SM FG BKN250
FM221100 00000KT 1SM BR BKN015
FM221400 00000KT 4SM BR BKN040
FM221600 VRB03KT P6SM SCT030

Example: see airport list